createdAt,value
2019-02-22T00:00:34.789Z,946.92
2019-02-22T00:01:34.785Z,946.91
2019-02-22T00:02:34.779Z,946.94
2019-02-22T00:03:34.752Z,947.00
2019-02-22T00:04:34.743Z,946.97
2019-02-22T00:05:34.729Z,947.00
2019-02-22T00:06:34.717Z,946.99
2019-02-22T00:07:34.756Z,946.98
2019-02-22T00:08:34.696Z,947.00
2019-02-22T00:09:34.684Z,946.99
2019-02-22T00:10:34.671Z,947.04
2019-02-22T00:11:34.661Z,947.07
2019-02-22T00:12:34.664Z,947.06
2019-02-22T00:13:34.648Z,947.09
2019-02-22T00:14:34.626Z,947.06
2019-02-22T00:15:36.276Z,947.11
2019-02-22T00:16:34.605Z,947.05
2019-02-22T00:17:34.625Z,947.10
2019-02-22T00:18:34.582Z,947.15
2019-02-22T00:19:34.575Z,947.16
2019-02-22T00:20:34.559Z,947.17
2019-02-22T00:21:34.549Z,947.18
2019-02-22T00:22:34.568Z,947.19
2019-02-22T00:23:34.524Z,947.16
2019-02-22T00:24:34.512Z,947.13
2019-02-22T00:25:34.508Z,947.17
2019-02-22T00:26:34.489Z,947.14
2019-02-22T00:27:34.487Z,947.19
2019-02-22T00:28:34.484Z,947.19
2019-02-22T00:29:34.455Z,947.20
2019-02-22T00:30:34.447Z,947.15
2019-02-22T00:31:34.444Z,947.17
2019-02-22T00:32:34.423Z,947.21
2019-02-22T00:33:34.426Z,947.16
2019-02-22T00:34:34.540Z,947.21
2019-02-22T00:35:34.539Z,947.18
2019-02-22T00:36:34.528Z,947.18
2019-02-22T00:37:34.371Z,947.21
2019-02-22T00:38:34.367Z,947.19
2019-02-22T00:39:34.341Z,947.20
2019-02-22T00:40:34.329Z,947.24
2019-02-22T00:41:34.318Z,947.24
2019-02-22T00:42:34.307Z,947.25
2019-02-22T00:43:34.322Z,947.25
2019-02-22T00:44:34.286Z,947.26
2019-02-22T00:45:34.273Z,947.20
2019-02-22T00:46:34.264Z,947.21
2019-02-22T00:47:34.251Z,947.18
2019-02-22T00:48:34.257Z,947.14
2019-02-22T00:49:34.240Z,947.13
2019-02-22T00:50:34.240Z,947.13
2019-02-22T00:51:34.207Z,947.15
2019-02-22T00:52:34.196Z,947.11
2019-02-22T00:53:34.199Z,947.12
2019-02-22T00:54:34.170Z,947.10
2019-02-22T00:55:34.184Z,947.13
2019-02-22T00:56:34.147Z,947.12
2019-02-22T00:57:34.137Z,947.10
2019-02-22T00:58:34.141Z,947.14
2019-02-22T00:59:34.115Z,947.13
2019-02-22T01:00:34.103Z,947.15
2019-02-22T01:01:34.099Z,947.18
2019-02-22T01:02:34.081Z,947.21
2019-02-22T01:03:34.084Z,947.15
2019-02-22T01:04:34.055Z,947.14
2019-02-22T01:05:34.045Z,947.13
2019-02-22T01:06:34.034Z,947.14
2019-02-22T01:07:34.034Z,947.09
2019-02-22T01:08:34.028Z,947.08
2019-02-22T01:09:33.999Z,947.13
2019-02-22T01:10:33.988Z,947.08
2019-02-22T01:11:33.977Z,947.07
2019-02-22T01:12:33.964Z,947.01
2019-02-22T01:13:33.976Z,947.05
2019-02-22T01:14:33.942Z,947.02
2019-02-22T01:15:33.930Z,947.03
2019-02-22T01:16:33.919Z,947.07
2019-02-22T01:17:33.911Z,947.07
2019-02-22T01:18:33.914Z,946.99
2019-02-22T01:19:33.903Z,946.99
2019-02-22T01:20:33.873Z,947.02
2019-02-22T01:21:33.861Z,947.01
2019-02-22T01:22:33.855Z,946.97
2019-02-22T01:23:33.855Z,946.89
2019-02-22T01:24:33.829Z,946.99
2019-02-22T01:25:33.828Z,946.96
2019-02-22T01:26:33.805Z,946.97
2019-02-22T01:27:33.793Z,946.97
2019-02-22T01:28:33.798Z,947.04
2019-02-22T01:29:33.770Z,946.97
2019-02-22T01:30:33.769Z,946.99
2019-02-22T01:31:33.769Z,947.00
2019-02-22T01:32:33.735Z,946.98
2019-02-22T01:33:33.739Z,947.02
2019-02-22T01:34:33.719Z,947.00
2019-02-22T01:35:33.701Z,946.93
2019-02-22T01:36:33.692Z,946.95
2019-02-22T01:37:33.688Z,946.92
2019-02-22T01:38:33.682Z,946.96
2019-02-22T01:39:33.658Z,946.95
2019-02-22T01:40:43.093Z,946.97
2019-02-22T01:41:34.636Z,946.92
2019-02-22T01:42:33.626Z,946.96
2019-02-22T01:43:33.622Z,946.99
2019-02-22T01:44:33.629Z,946.97
2019-02-22T01:45:33.592Z,946.96
2019-02-22T01:46:33.584Z,946.95
2019-02-22T01:47:33.570Z,946.94
2019-02-22T01:48:33.555Z,946.90
2019-02-22T01:49:33.570Z,946.92
2019-02-22T01:50:33.534Z,947.02
2019-02-22T01:51:33.522Z,946.95
2019-02-22T01:52:33.510Z,946.93
2019-02-22T01:53:33.502Z,947.00
2019-02-22T01:54:33.505Z,947.00
2019-02-22T01:55:33.484Z,946.95
2019-02-22T01:56:33.466Z,947.04
2019-02-22T01:57:33.465Z,947.01
2019-02-22T01:58:33.443Z,946.99
2019-02-22T01:59:33.448Z,947.05
2019-02-22T02:00:33.422Z,947.09
2019-02-22T02:01:33.416Z,947.01
2019-02-22T02:02:33.400Z,947.01
2019-02-22T02:03:33.387Z,946.97
2019-02-22T02:04:33.392Z,946.98
2019-02-22T02:05:33.365Z,946.98
2019-02-22T02:06:33.364Z,947.00
2019-02-22T02:07:33.355Z,946.99
2019-02-22T02:08:33.333Z,946.97
2019-02-22T02:09:33.339Z,946.96
2019-02-22T02:10:33.314Z,947.01
2019-02-22T02:11:33.300Z,946.92
2019-02-22T02:12:33.289Z,947.05
2019-02-22T02:13:33.285Z,946.92
2019-02-22T02:14:33.281Z,946.85
2019-02-22T02:15:33.255Z,946.91
2019-02-22T02:16:33.244Z,946.91
2019-02-22T02:17:33.233Z,946.88
2019-02-22T02:18:33.227Z,946.87
2019-02-22T02:19:33.234Z,946.90
2019-02-22T02:20:33.205Z,946.91
2019-02-22T02:21:33.196Z,946.86
2019-02-22T02:22:33.179Z,946.91
2019-02-22T02:23:33.166Z,946.92
2019-02-22T02:24:33.173Z,946.93
2019-02-22T02:25:33.151Z,946.94
2019-02-22T02:26:33.136Z,946.97
2019-02-22T02:27:33.123Z,947.00
2019-02-22T02:28:33.112Z,946.98
2019-02-22T02:29:33.113Z,946.94
2019-02-22T02:30:33.088Z,946.97
2019-02-22T02:31:33.087Z,946.97
2019-02-22T02:32:33.066Z,946.93
2019-02-22T02:33:33.057Z,946.92
2019-02-22T02:34:33.063Z,946.95
2019-02-22T02:35:33.037Z,946.97
2019-02-22T02:36:33.025Z,946.94
2019-02-22T02:37:33.016Z,946.95
2019-02-22T02:38:32.999Z,946.98
2019-02-22T02:39:33.004Z,946.93
2019-02-22T02:40:32.980Z,946.93
2019-02-22T02:41:32.966Z,946.89
2019-02-22T02:42:32.957Z,946.88
2019-02-22T02:43:32.956Z,946.91
2019-02-22T02:44:32.956Z,946.83
2019-02-22T02:45:32.924Z,946.90
2019-02-22T02:46:32.920Z,946.87
2019-02-22T02:47:32.909Z,946.87
2019-02-22T02:48:32.892Z,946.90
2019-02-22T02:49:32.890Z,946.91
2019-02-22T02:50:32.887Z,946.95
2019-02-22T02:51:32.861Z,946.96
2019-02-22T02:52:32.851Z,946.92
2019-02-22T02:53:32.835Z,946.95
2019-02-22T02:54:32.828Z,946.99
2019-02-22T02:55:32.837Z,946.98
2019-02-22T02:56:32.801Z,946.91
2019-02-22T02:57:32.799Z,946.93
2019-02-22T02:58:32.787Z,946.91
2019-02-22T02:59:32.768Z,946.84
2019-02-22T03:00:32.774Z,946.79
2019-02-22T03:01:32.753Z,946.76
2019-02-22T03:02:32.739Z,946.79
2019-02-22T03:03:32.725Z,946.74
2019-02-22T03:04:32.713Z,946.82
2019-02-22T03:05:32.717Z,946.82
2019-02-22T03:06:32.692Z,946.82
2019-02-22T03:07:32.688Z,946.85
2019-02-22T03:08:32.669Z,946.93
2019-02-22T03:09:32.665Z,946.88
2019-02-22T03:10:32.664Z,946.84
2019-02-22T03:11:32.636Z,946.90
2019-02-22T03:12:32.625Z,946.89
2019-02-22T03:13:32.621Z,946.94
2019-02-22T03:14:32.604Z,946.94
2019-02-22T03:15:32.608Z,946.95
2019-02-22T03:16:32.583Z,946.97
2019-02-22T03:17:32.571Z,946.99
2019-02-22T03:18:32.559Z,946.96
2019-02-22T03:19:32.555Z,947.01
2019-02-22T03:20:32.558Z,947.04
2019-02-22T03:21:32.533Z,947.06
2019-02-22T03:22:32.522Z,946.96
2019-02-22T03:23:32.504Z,946.97
2019-02-22T03:24:32.503Z,946.98
2019-02-22T03:25:32.511Z,947.01
2019-02-22T03:26:32.474Z,946.98
2019-02-22T03:27:32.461Z,946.99
2019-02-22T03:28:32.451Z,947.05
2019-02-22T03:29:32.439Z,947.15
2019-02-22T03:30:32.454Z,947.13
2019-02-22T03:31:32.427Z,947.15
2019-02-22T03:32:32.414Z,947.12
2019-02-22T03:33:32.396Z,947.17
2019-02-22T03:34:32.385Z,947.18
2019-02-22T03:35:32.388Z,947.18
2019-02-22T03:36:32.364Z,947.23
2019-02-22T03:37:32.361Z,947.22
2019-02-22T03:38:32.341Z,947.18
2019-02-22T03:39:32.332Z,947.18
2019-02-22T03:40:32.350Z,947.20
2019-02-22T03:41:33.520Z,947.18
2019-02-22T03:42:32.297Z,947.18
2019-02-22T03:43:32.293Z,947.18
2019-02-22T03:44:32.278Z,947.20
2019-02-22T03:45:32.266Z,947.21
2019-02-22T03:46:32.270Z,947.24
2019-02-22T03:47:34.978Z,947.25
2019-02-22T03:48:32.236Z,947.27
2019-02-22T03:49:32.231Z,947.29
2019-02-22T03:50:32.218Z,947.29
2019-02-22T03:51:32.219Z,947.32
2019-02-22T03:52:32.188Z,947.37
2019-02-22T03:53:32.178Z,947.34
2019-02-22T03:54:32.167Z,947.36
2019-02-22T03:55:32.170Z,947.37
2019-02-22T03:56:32.161Z,947.38
2019-02-22T03:57:32.139Z,947.38
2019-02-22T03:58:32.122Z,947.34
2019-02-22T03:59:32.176Z,947.40
2019-02-22T04:00:32.104Z,947.35
2019-02-22T04:01:32.121Z,947.41
2019-02-22T04:02:32.086Z,947.32
2019-02-22T04:03:32.069Z,947.36
2019-02-22T04:04:32.062Z,947.31
2019-02-22T04:05:32.053Z,947.31
2019-02-22T04:06:32.050Z,947.32
2019-02-22T04:07:32.036Z,947.35
2019-02-22T04:08:32.015Z,947.36
2019-02-22T04:09:32.003Z,947.42
2019-02-22T04:10:31.995Z,947.34
2019-02-22T04:11:44.643Z,947.34
2019-02-22T04:12:32.976Z,947.35
2019-02-22T04:13:31.970Z,947.30
2019-02-22T04:14:31.949Z,947.33
2019-02-22T04:15:31.939Z,947.37
2019-02-22T04:16:31.942Z,947.28
2019-02-22T04:17:31.915Z,947.35
2019-02-22T04:18:31.903Z,947.39
2019-02-22T04:19:31.904Z,947.37
2019-02-22T04:20:31.884Z,947.35
2019-02-22T04:21:31.887Z,947.37
2019-02-22T04:22:31.864Z,947.33
2019-02-22T04:23:31.850Z,947.38
2019-02-22T04:24:31.840Z,947.38
2019-02-22T04:25:31.838Z,947.40
2019-02-22T04:26:31.835Z,947.42
2019-02-22T04:27:31.809Z,947.43
2019-02-22T04:28:31.796Z,947.39
2019-02-22T04:29:31.821Z,947.45
2019-02-22T04:30:31.774Z,947.56
2019-02-22T04:31:31.778Z,947.43
2019-02-22T04:32:31.761Z,947.39
2019-02-22T04:33:31.744Z,947.32
2019-02-22T04:34:31.729Z,947.34
2019-02-22T04:35:31.720Z,947.36
2019-02-22T04:36:31.728Z,947.38
2019-02-22T04:37:31.698Z,947.37
2019-02-22T04:38:31.692Z,947.36
2019-02-22T04:39:31.675Z,947.34
2019-02-22T04:40:31.663Z,947.35
2019-02-22T04:41:31.670Z,947.35
2019-02-22T04:42:31.644Z,947.42
2019-02-22T04:43:31.633Z,947.39
2019-02-22T04:44:31.632Z,947.38
2019-02-22T04:45:31.612Z,947.42
2019-02-22T04:46:31.616Z,947.44
2019-02-22T04:47:31.586Z,947.41
2019-02-22T04:48:31.575Z,947.42
2019-02-22T04:49:31.565Z,947.45
2019-02-22T04:50:31.594Z,947.48
2019-02-22T04:51:31.559Z,947.50
2019-02-22T04:52:31.530Z,947.50
2019-02-22T04:53:31.524Z,947.49
2019-02-22T04:54:31.513Z,947.48
2019-02-22T04:55:31.499Z,947.51
2019-02-22T04:56:31.535Z,947.52
2019-02-22T04:57:31.478Z,947.46
2019-02-22T04:58:31.466Z,947.45
2019-02-22T04:59:31.456Z,947.42
2019-02-22T05:00:31.446Z,947.45
2019-02-22T05:01:31.434Z,947.45
2019-02-22T05:02:31.442Z,947.43
2019-02-22T05:03:31.412Z,947.48
2019-02-22T05:04:31.401Z,947.37
2019-02-22T05:05:31.388Z,947.46
2019-02-22T05:06:31.383Z,947.39
2019-02-22T05:07:31.383Z,947.39
2019-02-22T05:08:31.368Z,947.37
2019-02-22T05:09:31.347Z,947.46
2019-02-22T05:10:31.335Z,947.49
2019-02-22T05:11:31.327Z,947.47
2019-02-22T05:12:31.327Z,947.47
2019-02-22T05:13:31.306Z,947.54
2019-02-22T05:14:31.301Z,947.53
2019-02-22T05:15:31.281Z,947.49
2019-02-22T05:16:31.268Z,947.49
2019-02-22T05:17:31.271Z,947.51
2019-02-22T05:18:31.246Z,947.49
2019-02-22T05:19:31.234Z,947.51
2019-02-22T05:20:31.276Z,947.52
2019-02-22T05:21:31.211Z,947.52
2019-02-22T05:22:31.217Z,947.55
2019-02-22T05:23:31.190Z,947.56
2019-02-22T05:24:31.178Z,947.60
2019-02-22T05:25:31.192Z,947.53
2019-02-22T05:26:31.164Z,947.52
2019-02-22T05:27:31.161Z,947.49
2019-02-22T05:28:31.135Z,947.49
2019-02-22T05:29:31.123Z,947.51
2019-02-22T05:30:31.112Z,947.56
2019-02-22T05:31:31.103Z,947.52
2019-02-22T05:32:31.120Z,947.63
2019-02-22T05:33:31.078Z,947.50
2019-02-22T05:34:31.067Z,947.52
2019-02-22T05:35:31.059Z,947.55
2019-02-22T05:36:31.055Z,947.58
2019-02-22T05:37:31.051Z,947.51
2019-02-22T05:38:31.031Z,947.56
2019-02-22T05:39:31.013Z,947.55
2019-02-22T05:40:31.003Z,947.54
2019-02-22T05:41:31.019Z,947.54
2019-02-22T05:42:31.010Z,947.55
2019-02-22T05:43:30.973Z,947.59
2019-02-22T05:44:30.965Z,947.60
2019-02-22T05:45:30.971Z,947.55
2019-02-22T05:46:30.940Z,947.54
2019-02-22T05:47:30.944Z,947.57
2019-02-22T05:48:30.925Z,947.63
2019-02-22T05:49:30.908Z,947.65
2019-02-22T05:50:30.902Z,947.61
2019-02-22T05:51:30.881Z,947.66
2019-02-22T05:52:30.887Z,947.66
2019-02-22T05:53:30.861Z,947.64
2019-02-22T05:54:30.854Z,947.66
2019-02-22T05:55:30.839Z,947.71
2019-02-22T05:56:30.834Z,947.62
2019-02-22T05:57:30.832Z,947.68
2019-02-22T05:58:30.811Z,947.65
2019-02-22T05:59:30.796Z,947.69
2019-02-22T06:00:30.871Z,947.70
2019-02-22T06:01:30.775Z,947.69
2019-02-22T06:02:33.579Z,947.68
2019-02-22T06:03:30.752Z,947.71
2019-02-22T06:04:30.788Z,947.72
2019-02-22T06:05:30.732Z,947.74
2019-02-22T06:06:30.723Z,947.70
2019-02-22T06:07:30.722Z,947.76
2019-02-22T06:08:30.705Z,947.72
2019-02-22T06:09:30.685Z,947.75
2019-02-22T06:10:30.673Z,947.75
2019-02-22T06:11:30.676Z,947.76
2019-02-22T06:12:34.448Z,947.77
2019-02-22T06:13:30.640Z,947.82
2019-02-22T06:14:30.640Z,947.78
2019-02-22T06:15:31.513Z,947.87
2019-02-22T06:16:30.607Z,947.86
2019-02-22T06:17:30.613Z,947.86
2019-02-22T06:18:30.586Z,947.87
2019-02-22T06:19:30.574Z,947.88
2019-02-22T06:20:30.571Z,947.91
2019-02-22T06:21:30.555Z,947.94
2019-02-22T06:22:30.558Z,947.94
2019-02-22T06:23:30.573Z,947.99
2019-02-22T06:24:30.524Z,947.98
2019-02-22T06:25:30.507Z,948.01
2019-02-22T06:26:30.599Z,948.02
2019-02-22T06:27:30.524Z,947.97
2019-02-22T06:28:30.473Z,948.06
2019-02-22T06:29:30.462Z,948.01
2019-02-22T06:30:30.451Z,948.07
2019-02-22T06:31:30.512Z,947.99
2019-02-22T06:32:30.482Z,948.00
2019-02-22T06:33:30.452Z,948.00
2019-02-22T06:34:30.422Z,948.01
2019-02-22T06:35:30.425Z,947.95
2019-02-22T06:36:30.390Z,947.96
2019-02-22T06:37:30.376Z,947.99
2019-02-22T06:38:30.393Z,948.04
2019-02-22T06:39:30.355Z,947.99
2019-02-22T06:40:30.366Z,948.01
2019-02-22T06:41:30.334Z,948.02
2019-02-22T06:42:30.327Z,948.04
2019-02-22T06:43:30.360Z,948.02
2019-02-22T06:44:30.312Z,948.07
2019-02-22T06:45:30.290Z,948.03
2019-02-22T06:46:30.278Z,948.09
2019-02-22T06:47:30.268Z,948.06
2019-02-22T06:48:30.270Z,948.05
2019-02-22T06:49:30.245Z,948.08
2019-02-22T06:50:33.785Z,948.06
2019-02-22T06:51:30.223Z,948.02
2019-02-22T06:52:30.209Z,948.04
2019-02-22T06:53:30.212Z,948.05
2019-02-22T06:54:30.190Z,948.03
2019-02-22T06:55:30.174Z,948.09
2019-02-22T06:56:30.175Z,948.06
2019-02-22T06:57:30.154Z,948.06
2019-02-22T06:58:30.157Z,948.07
2019-02-22T06:59:30.130Z,948.09
2019-02-22T07:00:30.122Z,948.09
2019-02-22T07:01:30.109Z,948.09
2019-02-22T07:02:30.104Z,948.09
2019-02-22T07:03:30.102Z,948.11
2019-02-22T07:04:30.077Z,948.16
2019-02-22T07:05:30.068Z,948.16
2019-02-22T07:06:30.057Z,948.15
2019-02-22T07:07:30.041Z,948.17
2019-02-22T07:08:30.064Z,948.10
2019-02-22T07:09:30.020Z,948.17
2019-02-22T07:10:30.009Z,948.17
2019-02-22T07:11:29.999Z,948.17
2019-02-22T07:12:29.985Z,948.16
2019-02-22T07:13:30.004Z,948.20
2019-02-22T07:14:29.971Z,948.23
2019-02-22T07:15:29.951Z,948.23
2019-02-22T07:16:29.943Z,948.22
2019-02-22T07:17:29.929Z,948.25
2019-02-22T07:18:29.922Z,948.30
2019-02-22T07:19:29.920Z,948.30
2019-02-22T07:20:29.903Z,948.33
2019-02-22T07:21:43.734Z,948.39
2019-02-22T07:22:30.871Z,948.37
2019-02-22T07:23:29.859Z,948.30
2019-02-22T07:24:29.866Z,948.39
2019-02-22T07:25:29.838Z,948.38
2019-02-22T07:26:29.835Z,948.41
2019-02-22T07:27:29.814Z,948.45
2019-02-22T07:28:29.804Z,948.50
2019-02-22T07:29:29.812Z,948.55
2019-02-22T07:30:29.785Z,948.55
2019-02-22T07:31:29.769Z,948.61
2019-02-22T07:32:29.766Z,948.59
2019-02-22T07:33:29.745Z,948.56
2019-02-22T07:34:29.762Z,948.56
2019-02-22T07:35:29.729Z,948.62
2019-02-22T07:36:29.737Z,948.60
2019-02-22T07:37:29.703Z,948.60
2019-02-22T07:38:29.708Z,948.57
2019-02-22T07:39:29.696Z,948.62
2019-02-22T07:40:29.672Z,948.60
2019-02-22T07:41:29.658Z,948.53
2019-02-22T07:42:29.645Z,948.56
2019-02-22T07:43:29.633Z,948.52
2019-02-22T07:44:29.644Z,948.57
2019-02-22T07:45:29.615Z,948.59
2019-02-22T07:46:29.602Z,948.57
2019-02-22T07:47:29.589Z,948.59
2019-02-22T07:48:29.579Z,948.55
2019-02-22T07:49:29.588Z,948.52
2019-02-22T07:50:29.566Z,948.58
2019-02-22T07:51:29.543Z,948.62
2019-02-22T07:52:29.534Z,948.59
2019-02-22T07:53:29.525Z,948.60
2019-02-22T07:54:29.524Z,948.58
2019-02-22T07:55:29.497Z,948.56
2019-02-22T07:56:29.491Z,948.58
2019-02-22T07:57:29.477Z,948.58
2019-02-22T07:58:29.462Z,948.59
2019-02-22T07:59:29.466Z,948.62
2019-02-22T08:00:29.439Z,948.65
2019-02-22T08:01:29.430Z,948.64
2019-02-22T08:02:29.423Z,948.68
2019-02-22T08:03:29.409Z,948.72
2019-02-22T08:04:29.411Z,948.70
2019-02-22T08:05:29.383Z,948.69
2019-02-22T08:06:29.387Z,948.71
2019-02-22T08:07:29.361Z,948.76
2019-02-22T08:08:29.360Z,948.73
2019-02-22T08:09:29.352Z,948.76
2019-02-22T08:10:29.326Z,948.77
2019-02-22T08:11:29.315Z,948.81
2019-02-22T08:12:29.302Z,948.80
2019-02-22T08:13:29.294Z,948.82
2019-02-22T08:14:29.308Z,948.83
2019-02-22T08:15:29.270Z,948.85
2019-02-22T08:16:29.258Z,948.83
2019-02-22T08:17:29.246Z,948.80
2019-02-22T08:18:29.235Z,948.84
2019-02-22T08:19:29.242Z,948.84
2019-02-22T08:20:29.220Z,948.82
2019-02-22T08:21:29.201Z,948.83
2019-02-22T08:22:29.190Z,948.86
2019-02-22T08:23:29.181Z,948.83
2019-02-22T08:24:29.196Z,948.85
2019-02-22T08:25:29.157Z,948.88
2019-02-22T08:26:29.154Z,948.90
2019-02-22T08:27:29.136Z,948.86
2019-02-22T08:28:29.124Z,948.87
2019-02-22T08:29:29.112Z,948.88
2019-02-22T08:30:29.116Z,948.89
2019-02-22T08:31:29.094Z,948.89
2019-02-22T08:32:29.085Z,948.87
2019-02-22T08:33:29.069Z,948.87
2019-02-22T08:34:29.057Z,948.95
2019-02-22T08:35:29.061Z,948.88
2019-02-22T08:36:29.035Z,948.87
2019-02-22T08:37:29.025Z,948.89
2019-02-22T08:38:29.060Z,948.88
2019-02-22T08:39:29.001Z,948.94
2019-02-22T08:40:29.007Z,948.94
2019-02-22T08:41:28.979Z,948.96
2019-02-22T08:42:28.968Z,948.97
2019-02-22T08:43:31.838Z,948.99
2019-02-22T08:44:28.958Z,949.00
2019-02-22T08:45:28.949Z,948.99
2019-02-22T08:46:28.923Z,949.01
2019-02-22T08:47:28.927Z,948.99
2019-02-22T08:48:28.900Z,949.02
2019-02-22T08:49:28.889Z,949.02
2019-02-22T08:50:28.903Z,949.05
2019-02-22T08:51:28.868Z,949.07
2019-02-22T08:52:28.857Z,949.01
2019-02-22T08:53:28.850Z,949.04
2019-02-22T08:54:28.835Z,949.03
2019-02-22T08:55:28.838Z,949.04
2019-02-22T08:56:28.821Z,949.05
2019-02-22T08:57:28.802Z,949.05
2019-02-22T08:58:28.789Z,949.03
2019-02-22T08:59:28.778Z,949.08
2019-02-22T09:00:28.783Z,949.11
2019-02-22T09:01:28.756Z,949.12
2019-02-22T09:02:28.750Z,949.07
2019-02-22T09:03:28.733Z,949.09
2019-02-22T09:04:28.723Z,949.14
2019-02-22T09:05:28.730Z,949.18
2019-02-22T09:06:28.700Z,949.15
2019-02-22T09:07:28.692Z,949.19
2019-02-22T09:08:28.685Z,949.22
2019-02-22T09:09:28.667Z,949.23
2019-02-22T09:10:28.671Z,949.29
2019-02-22T09:11:28.647Z,949.30
2019-02-22T09:12:28.632Z,949.32
2019-02-22T09:13:28.625Z,949.32
2019-02-22T09:14:28.619Z,949.31
2019-02-22T09:15:28.615Z,949.32
2019-02-22T09:16:28.587Z,949.32
2019-02-22T09:17:28.580Z,949.30
2019-02-22T09:18:28.569Z,949.29
2019-02-22T09:19:28.566Z,949.28
2019-02-22T09:20:28.587Z,949.27
2019-02-22T09:21:28.533Z,949.30
2019-02-22T09:22:28.522Z,949.30
2019-02-22T09:23:28.511Z,949.30
2019-02-22T09:24:28.500Z,949.29
2019-02-22T09:25:28.506Z,949.33
2019-02-22T09:26:28.482Z,949.33
2019-02-22T09:27:28.467Z,949.35
2019-02-22T09:28:28.455Z,949.32
2019-02-22T09:29:28.445Z,949.37
2019-02-22T09:30:28.450Z,949.34
2019-02-22T09:31:28.422Z,949.40
2019-02-22T09:32:28.436Z,949.36
2019-02-22T09:33:28.399Z,949.43
2019-02-22T09:34:28.389Z,949.41
2019-02-22T09:35:28.393Z,949.41
2019-02-22T09:36:28.370Z,949.44
2019-02-22T09:37:28.355Z,949.47
2019-02-22T09:38:28.349Z,949.46
2019-02-22T09:39:28.335Z,949.47
2019-02-22T09:40:28.337Z,949.47
2019-02-22T09:41:28.313Z,949.43
2019-02-22T09:42:28.300Z,949.47
2019-02-22T09:43:28.289Z,949.50
2019-02-22T09:44:28.283Z,949.49
2019-02-22T09:45:28.290Z,949.46
2019-02-22T09:46:28.257Z,949.46
2019-02-22T09:47:28.251Z,949.48
2019-02-22T09:48:28.234Z,949.53
2019-02-22T09:49:28.220Z,949.51
2019-02-22T09:50:28.229Z,949.53
2019-02-22T09:51:28.215Z,949.53
2019-02-22T09:52:28.187Z,949.55
2019-02-22T09:53:28.176Z,949.59
2019-02-22T09:54:28.169Z,949.54
2019-02-22T09:55:28.155Z,949.54
2019-02-22T09:56:28.168Z,949.58
2019-02-22T09:57:28.131Z,949.65
2019-02-22T09:58:28.122Z,949.67
2019-02-22T09:59:28.110Z,949.66
2019-02-22T10:00:28.099Z,949.61
2019-02-22T10:01:28.102Z,949.64
2019-02-22T10:02:28.080Z,949.67
2019-02-22T10:03:28.067Z,949.69
2019-02-22T10:04:28.183Z,949.66
2019-02-22T10:05:28.042Z,949.65
2019-02-22T10:06:28.052Z,949.58
2019-02-22T10:07:28.021Z,949.64
2019-02-22T10:08:28.016Z,949.63
2019-02-22T10:09:27.998Z,949.58
2019-02-22T10:10:27.988Z,949.60
2019-02-22T10:11:27.992Z,949.58
2019-02-22T10:12:27.967Z,949.62
2019-02-22T10:13:27.954Z,949.60
2019-02-22T10:14:28.637Z,949.56
2019-02-22T10:15:27.933Z,949.62
2019-02-22T10:16:27.938Z,949.64
2019-02-22T10:17:27.932Z,949.73
2019-02-22T10:18:27.902Z,949.69
2019-02-22T10:19:27.888Z,949.69
2019-02-22T10:20:27.885Z,949.74
2019-02-22T10:21:27.881Z,949.77
2019-02-22T10:22:27.856Z,949.77
2019-02-22T10:23:27.843Z,949.77
2019-02-22T10:24:27.832Z,949.81
2019-02-22T10:25:27.832Z,949.78
2019-02-22T10:26:27.832Z,949.82
2019-02-22T10:27:27.799Z,949.79
2019-02-22T10:28:27.791Z,949.75
2019-02-22T10:29:27.774Z,949.82
2019-02-22T10:30:27.764Z,949.81
2019-02-22T10:31:27.768Z,949.84
2019-02-22T10:32:27.751Z,949.86
2019-02-22T10:33:36.173Z,949.86
2019-02-22T10:34:28.718Z,949.88
2019-02-22T10:35:27.709Z,949.90
2019-02-22T10:36:27.714Z,949.91
2019-02-22T10:37:27.686Z,949.94
2019-02-22T10:38:27.682Z,949.95
2019-02-22T10:39:27.664Z,949.96
2019-02-22T10:40:27.661Z,949.94
2019-02-22T10:41:27.656Z,949.94
2019-02-22T10:42:27.630Z,949.95
2019-02-22T10:43:27.620Z,949.97
2019-02-22T10:44:27.619Z,949.97
2019-02-22T10:45:27.597Z,950.00
2019-02-22T10:46:27.606Z,950.02
2019-02-22T10:47:27.574Z,950.03
2019-02-22T10:48:27.564Z,950.05
2019-02-22T10:49:27.554Z,950.02
2019-02-22T10:50:27.552Z,950.06
2019-02-22T10:51:27.546Z,950.02
2019-02-22T10:52:27.521Z,950.01
2019-02-22T10:53:27.510Z,950.01
2019-02-22T10:54:27.497Z,950.03
2019-02-22T10:55:27.486Z,950.03
2019-02-22T10:56:28.360Z,950.03
2019-02-22T10:57:27.478Z,950.06
2019-02-22T10:58:27.453Z,950.07
2019-02-22T10:59:27.441Z,950.06
2019-02-22T11:00:27.429Z,950.08
2019-02-22T11:01:27.453Z,950.08
2019-02-22T11:02:27.424Z,950.06
2019-02-22T11:03:27.403Z,950.03
2019-02-22T11:04:27.389Z,950.04
2019-02-22T11:05:27.373Z,950.06
2019-02-22T11:06:27.378Z,950.03
2019-02-22T11:07:27.351Z,950.05
2019-02-22T11:08:27.346Z,950.09
2019-02-22T11:09:27.331Z,950.10
2019-02-22T11:10:27.319Z,950.08
2019-02-22T11:11:27.324Z,950.11
2019-02-22T11:12:27.297Z,950.11
2019-02-22T11:13:27.286Z,950.16
2019-02-22T11:14:29.380Z,950.10
2019-02-22T11:15:27.263Z,950.14
2019-02-22T11:16:27.270Z,950.19
2019-02-22T11:17:27.243Z,950.15
2019-02-22T11:18:27.242Z,950.14
2019-02-22T11:19:27.219Z,950.09
2019-02-22T11:20:27.216Z,950.14
2019-02-22T11:21:27.218Z,950.14
2019-02-22T11:22:27.190Z,950.17
2019-02-22T11:23:27.179Z,950.10
2019-02-22T11:24:27.179Z,950.03
2019-02-22T11:25:27.153Z,950.05
2019-02-22T11:26:27.166Z,950.00
2019-02-22T11:27:27.131Z,950.02
2019-02-22T11:28:27.122Z,950.01
2019-02-22T11:29:27.111Z,949.98
2019-02-22T11:30:27.098Z,949.98
2019-02-22T11:31:27.099Z,949.98
2019-02-22T11:32:27.203Z,950.01
2019-02-22T11:33:27.063Z,949.93
2019-02-22T11:34:27.053Z,949.90
2019-02-22T11:35:27.113Z,949.91
2019-02-22T11:36:27.058Z,949.94
2019-02-22T11:37:27.026Z,949.95
2019-02-22T11:38:27.022Z,949.88
2019-02-22T11:39:26.996Z,949.88
2019-02-22T11:40:26.988Z,949.86
2019-02-22T11:41:26.977Z,949.88
2019-02-22T11:42:26.977Z,949.85
2019-02-22T11:43:26.952Z,949.90
2019-02-22T11:44:26.945Z,949.97
2019-02-22T11:45:26.932Z,949.93
2019-02-22T11:46:26.920Z,949.90
2019-02-22T11:47:26.938Z,950.01
2019-02-22T11:48:26.898Z,949.94
2019-02-22T11:49:26.887Z,949.99
2019-02-22T11:50:26.885Z,949.99
2019-02-22T11:51:26.868Z,949.97
2019-02-22T11:52:26.879Z,949.98
2019-02-22T11:53:26.846Z,949.99
2019-02-22T11:54:26.837Z,950.02
2019-02-22T11:55:26.823Z,950.00
2019-02-22T11:56:26.818Z,949.99
2019-02-22T11:57:26.820Z,949.98
2019-02-22T11:58:26.795Z,950.02
2019-02-22T11:59:26.780Z,950.02
2019-02-22T12:00:26.779Z,949.99
2019-02-22T12:01:26.759Z,950.05
2019-02-22T12:02:26.771Z,949.99
2019-02-22T12:03:26.738Z,950.00
2019-02-22T12:04:26.726Z,949.96
2019-02-22T12:05:26.714Z,949.96
2019-02-22T12:06:26.703Z,949.94
2019-02-22T12:07:26.709Z,949.98
2019-02-22T12:08:26.695Z,949.98
2019-02-22T12:09:26.672Z,949.95
2019-02-22T12:10:26.670Z,949.96
2019-02-22T12:11:26.650Z,949.92
2019-02-22T12:12:26.655Z,949.95
2019-02-22T12:13:26.628Z,949.92
2019-02-22T12:14:26.624Z,949.94
2019-02-22T12:15:26.605Z,949.89
2019-02-22T12:16:26.595Z,949.94
2019-02-22T12:17:26.599Z,949.97
2019-02-22T12:18:26.573Z,949.91
2019-02-22T12:19:26.561Z,949.96
2019-02-22T12:20:26.557Z,949.91
2019-02-22T12:21:26.539Z,949.94
2019-02-22T12:22:26.588Z,949.92
2019-02-22T12:23:26.540Z,949.95
2019-02-22T12:24:26.505Z,949.94
2019-02-22T12:25:26.493Z,949.92
2019-02-22T12:26:26.494Z,949.87
2019-02-22T12:27:26.489Z,949.90
2019-02-22T12:28:26.459Z,949.87